Brescia Airport

LIPO · Lombardy, Italy

METAR history LIPO · Brescia Airport

Below you see METARs of the last few days. Select a year to browse through older METARs, from the year 2007 onwards.

May 25, 2024

Time Code Weather Temp. Visibility Ceiling Wind METAR/SPECI
11:50
V
20 °C 10 km+ - 360° 360° 5 kt METAR LIPO 250950Z AUTO 36005KT 290V070 9999 FEW099/// 20/14 Q1017
11:20
V
18 °C 10 km+ - 020° 020° 4 kt METAR LIPO 250920Z AUTO 02004KT 9999 -RA FEW011/// SCT033/// 18/13 Q1017 RERA
10:50
V
18 °C 10 km+ 4,400 ft 030° 030° 6 kt METAR LIPO 250850Z AUTO 03006KT 360V070 9999 -RA FEW034/// BKN044/// 18/13 Q1017
10:20
V
19 °C 10 km+ 3,400 ft 040° 040° 8 kt METAR LIPO 250820Z AUTO 04008KT 9999 BKN034/// 19/12 Q1017
09:50
V
19 °C 10 km+ - 040° 040° 9 kt METAR LIPO 250750Z AUTO 04009KT 9999 FEW032/// 19/13 Q1017
09:20
V
18 °C 10 km+ - 030° 030° 6 kt METAR LIPO 250720Z AUTO 03006KT 360V070 9999 FEW023/// SCT044/// 18/12 Q1017
08:50
V
17 °C 10 km+ 3,500 ft 040° 040° 8 kt METAR LIPO 250650Z AUTO 04008KT 9999 BKN035/// 17/12 Q1017
08:20
V
17 °C 10 km+ 7,200 ft 040° 040° 7 kt METAR LIPO 250620Z AUTO 04007KT 9999 FEW034/// BKN072/// 17/12 Q1017
07:50
V
17 °C 10 km+ 7,100 ft 050° 050° 8 kt METAR LIPO 250550Z AUTO 05008KT 9999 BKN071/// 17/12 Q1017
07:20
V
16 °C 10 km+ - 050° 050° 5 kt METAR LIPO 250520Z AUTO 05005KT 9999 FEW074/// 16/12 Q1017
06:50
V
15 °C 10 km+ - 070° 070° 3 kt METAR LIPO 250450Z AUTO 07003KT 9999 FEW033/// SCT099/// 15/14 Q1017
06:20
V
15 °C 10 km+ 8,400 ft Var Var 1 kt METAR LIPO 250420Z AUTO VRB01KT 9999 SCT029/// BKN084/// BKN100/// 15/14 Q1017
05:50
V
15 °C 10 km+ 8,400 ft 020° 020° 3 kt METAR LIPO 250350Z AUTO 02003KT 9999 SCT030/// BKN084/// 15/13 Q1017
05:20
V
15 °C 10 km+ 6,800 ft 310° 310° 4 kt METAR LIPO 250320Z AUTO 31004KT 9999 FEW029/// BKN068/// 15/13 Q1017
04:50
V
16 °C 10 km+ 3,100 ft 320° 320° 4 kt METAR LIPO 250250Z AUTO 32004KT 270V010 9999 BKN031/// BKN069/// 16/12 Q1017
04:20
V
16 °C 10 km+ - 030° 030° 5 kt METAR LIPO 250220Z AUTO 03005KT 9999 SCT036/// 16/12 Q1017
03:50
V
16 °C 10 km+ 5,500 ft 050° 050° 7 kt METAR LIPO 250150Z AUTO 05007KT 9999 SCT037/// BKN055/// BKN085/// 16/12 Q1017
03:20
V
17 °C 10 km+ 7,700 ft 050° 050° 6 kt METAR LIPO 250120Z AUTO 05006KT 9999 BKN077/// 17/11 Q1017
02:50
V
17 °C 10 km+ 8,000 ft 050° 050° 7 kt METAR LIPO 250050Z AUTO 05007KT 9999 BKN080/// 17/12 Q1017
02:20
V
17 °C 10 km+ 8,400 ft 050° 050° 7 kt METAR LIPO 250020Z AUTO 05007KT 030V090 9999 FEW042/// BKN084/// 17/13 Q1017
01:50
V
17 °C 10 km+ 8,600 ft 040° 040° 6 kt METAR LIPO 242350Z AUTO 04006KT 9999 SCT037/// BKN086/// 17/13 Q1017
01:20
V
16 °C 10 km+ 10,000 ft 040° 040° 6 kt METAR LIPO 242320Z AUTO 04006KT 9999 FEW086/// BKN100/// 16/14 Q1017
00:50
V
16 °C 10 km+ - 070° 070° 5 kt METAR LIPO 242250Z AUTO 07005KT 9999 FEW083/// SCT130/// 16/14 Q1017
00:20
V
17 °C 10 km+ 8,300 ft 080° 080° 3 kt METAR LIPO 242220Z AUTO 08003KT 9999 BKN083/// BKN130/// 17/14 Q1017

May 24, 2024

Time Code Weather Temp. Visibility Ceiling Wind METAR/SPECI
23:50
V
17 °C 10 km+ 11,000 ft 040° 040° 3 kt METAR LIPO 242150Z AUTO 04003KT 9999 -RA FEW053/// BKN110/// 17/13 Q1017
23:20
V
18 °C 10 km+ 10,000 ft 030° 030° 3 kt METAR LIPO 242120Z AUTO 03003KT 9999 -RA BKN100/// 18/14 Q1017
22:50
V
18 °C 10 km+ 10,000 ft 360° 360° 2 kt METAR LIPO 242050Z AUTO 36002KT 9999 BKN100/// BKN120/// 18/14 Q1017
22:20
V
18 °C 10 km+ 11,000 ft 020° 020° 2 kt METAR LIPO 242020Z AUTO 02002KT 9999 BKN110/// BKN120/// 18/13 Q1018
21:50
V
17 °C 10 km+ 11,000 ft Var Var 2 kt METAR LIPO 241950Z AUTO VRB02KT 9999 BKN110/// BKN140/// 17/13 Q1017
21:20
V
18 °C 10 km+ 17,000 ft 310° 310° 2 kt METAR LIPO 241920Z AUTO 31002KT 9999 FEW120/// SCT140/// BKN170/// 18/13 Q1017
20:50
V
18 °C 10 km+ - 270° 270° 3 kt METAR LIPO 241850Z AUTO 27003KT 9999 FEW064/// SCT130/// 18/12 Q1017
20:20
V
18 °C 10 km+ - 280° 280° 4 kt METAR LIPO 241820Z AUTO 28004KT 9999 NCD 18/12 Q1017
19:50
V
19 °C 10 km+ - 290° 290° 6 kt METAR LIPO 241750Z AUTO 29006KT 9999 FEW081/// 19/12 Q1017
19:20
V
20 °C 10 km+ - 290° 290° 6 kt METAR LIPO 241720Z AUTO 29006KT 9999 FEW082/// 20/12 Q1017
18:50
V
21 °C 10 km+ 6,200 ft 270° 270° 6 kt METAR LIPO 241650Z AUTO 27006KT 9999 BKN062/// 21/12 Q1017
18:20
V
22 °C 10 km+ - 290° 290° 3 kt METAR LIPO 241620Z AUTO 29003KT 230V020 9999 NCD 22/13 Q1017
17:50
V
22 °C 10 km+ 11,000 ft 290° 290° 5 kt METAR LIPO 241550Z AUTO 29005KT 9999 SCT100/// BKN110/// 22/13 Q1017
17:20
V
21 °C 10 km+ 12,000 ft 270° 270° 6 kt METAR LIPO 241520Z AUTO 27006KT 240V310 9999 BKN120/// 21/15 Q1017
16:50
V
22 °C 10 km+ - 210° 210° 7 kt METAR LIPO 241450Z AUTO 21007KT 170V230 9999 FEW160/// 22/12 Q1017
16:20
V
21 °C 10 km+ - 180° 180° 4 kt METAR LIPO 241420Z AUTO 18004KT 160V230 9999 NCD 21/13 Q1017
15:50
V
21 °C 10 km+ - 180° 180° 5 kt METAR LIPO 241350Z AUTO 18005KT 9999 NCD 21/12 Q1017
15:20
V
21 °C 10 km+ - 180° 180° 5 kt METAR LIPO 241320Z AUTO 18005KT 140V210 9999 FEW042/// 21/12 Q1017
14:50
V
22 °C 10 km+ - 160° 160° 6 kt METAR LIPO 241250Z AUTO 16006KT 130V200 9999 NCD 22/13 Q1017
14:20
V
22 °C 10 km+ - Var Var 4 kt METAR LIPO 241220Z AUTO VRB04KT 9999 FEW041/// 22/12 Q1018
13:50
V
22 °C 10 km+ - 150° 150° 4 kt METAR LIPO 241150Z AUTO 15004KT 080V190 9999 NCD 22/13 Q1018
13:20
V
22 °C 10 km+ - 130° 130° 4 kt METAR LIPO 241120Z AUTO 13004KT 080V170 9999 FEW034/// 22/13 Q1018
12:50
V
21 °C 10 km+ - 210° 210° 4 kt METAR LIPO 241050Z AUTO 21004KT 160V280 9999 FEW031/// 21/13 Q1018
12:20
V
21 °C 10 km+ - Var Var 4 kt METAR LIPO 241020Z AUTO VRB04KT 9999 FEW072/// 21/13 Q1019
11:50
V
20 °C 10 km+ - 170° 170° 3 kt METAR LIPO 240950Z AUTO 17003KT 110V230 9999 FEW035/// 20/13 Q1019
11:20
V
20 °C 10 km+ - 210° 210° 3 kt METAR LIPO 240920Z AUTO 21003KT 150V260 9999 FEW029/// 20/13 Q1019
10:50
V
19 °C 10 km+ - Var Var 2 kt METAR LIPO 240850Z AUTO VRB02KT 9999 NCD 19/13 Q1019
10:20
V
19 °C 10 km+ - Var Var 2 kt METAR LIPO 240820Z AUTO VRB02KT 9999 NCD 19/13 Q1019
09:50
V
19 °C 10 km+ - Var Var 1 kt METAR LIPO 240750Z AUTO VRB01KT 9999 FEW087/// 19/12 Q1019
09:20
V
18 °C 10 km+ - Var Var 2 kt METAR LIPO 240720Z AUTO VRB02KT 9999 NCD 18/12 Q1019
08:50
V
17 °C 10 km+ - 060° 060° 3 kt METAR LIPO 240650Z AUTO 06003KT 030V090 9999 FEW066/// 17/12 Q1019
08:20
V
16 °C 10 km+ - 040° 040° 3 kt METAR LIPO 240620Z AUTO 04003KT 010V100 9999 SCT049/// 16/12 Q1019
07:50
V
15 °C 10 km+ - 030° 030° 3 kt METAR LIPO 240550Z AUTO 03003KT 9999 SCT024/// SCT049/// 15/13 Q1018
07:20
V
14 °C 10 km+ - 020° 020° 5 kt METAR LIPO 240520Z AUTO 02005KT 9999 NCD 14/12 Q1018
06:50
V
12 °C 10 km+ - 010° 010° 5 kt METAR LIPO 240450Z AUTO 01005KT 9999 FEW043/// 12/11 Q1018
06:20
V
12 °C 10 km+ - 360° 360° 2 kt METAR LIPO 240420Z AUTO 36002KT 9999 SCT043/// 12/11 Q1018
05:50
V
11 °C 10 km+ - Var Var 2 kt METAR LIPO 240350Z AUTO VRB02KT 9999 NCD 11/11 Q1018
05:20
V
11 °C 10 km+ - Var Var 1 kt METAR LIPO 240320Z AUTO VRB01KT 9999 NCD 11/10 Q1017
04:50
V
11 °C 10 km+ - Var Var 2 kt METAR LIPO 240250Z AUTO VRB02KT 9999 FEW028/// 11/11 Q1017
04:20
V
12 °C 10 km+ - 020° 020° 3 kt METAR LIPO 240220Z AUTO 02003KT 350V050 9999 NCD 12/11 Q1017
03:50
V
12 °C 10 km+ - 360° 360° 3 kt METAR LIPO 240150Z AUTO 36003KT 9999 SCT040/// 12/11 Q1017
03:20
V
12 °C 10 km+ 4,000 ft 010° 010° 2 kt METAR LIPO 240120Z AUTO 01002KT 9999 BKN040/// 12/12 Q1017
02:50
V
12 °C 10 km+ 3,900 ft 010° 010° 3 kt METAR LIPO 240050Z AUTO 01003KT 9999 BKN039/// 12/12 Q1017
02:20
V
13 °C 10 km+ 3,500 ft 010° 010° 3 kt METAR LIPO 240020Z AUTO 01003KT 9999 BKN035/// 13/12 Q1017
01:50
V
12 °C 10 km+ - Var Var 1 kt METAR LIPO 232350Z AUTO VRB01KT 9999 SCT034/// 12/12 Q1017
01:20
V
12 °C 10 km+ - 010° 010° 5 kt METAR LIPO 232320Z AUTO 01005KT 9999 NCD 12/12 Q1017
00:50
V
13 °C 10 km+ - 040° 040° 4 kt METAR LIPO 232250Z AUTO 04004KT 9999 NCD 13/12 Q1017
00:20
V
13 °C 10 km+ - 070° 070° 3 kt METAR LIPO 232220Z AUTO 07003KT 9999 NCD 13/13 Q1017

May 23, 2024

Time Code Weather Temp. Visibility Ceiling Wind METAR/SPECI
23:50
V
13 °C 10 km+ - 050° 050° 2 kt METAR LIPO 232150Z AUTO 05002KT 9999 NCD 13/13 Q1017
23:20
V
13 °C 10 km+ - Var Var 1 kt METAR LIPO 232120Z AUTO VRB01KT 9999 NCD 13/13 Q1017
22:50
V
14 °C 10 km+ - Var Var 1 kt METAR LIPO 232050Z AUTO VRB01KT 9999 NCD 14/13 Q1017
22:20
V
14 °C 10 km+ - Var Var 2 kt METAR LIPO 232020Z AUTO VRB02KT 9999 NCD 14/13 Q1017
21:50
V
14 °C 10 km+ - Var Var 1 kt METAR LIPO 231950Z AUTO VRB01KT 9999 NCD 14/13 Q1017
21:20
V
15 °C 10 km+ - Var Var 2 kt METAR LIPO 231920Z AUTO VRB02KT 9999 NCD 15/13 Q1016
20:50
V
15 °C 10 km+ - 250° 250° 5 kt METAR LIPO 231850Z AUTO 25005KT 9999 NCD 15/12 Q1016
20:20
V
17 °C 10 km+ - 250° 250° 4 kt METAR LIPO 231820Z AUTO 25004KT 9999 NCD 17/11 Q1016
19:50
V
18 °C 10 km+ - 220° 220° 3 kt METAR LIPO 231750Z AUTO 22003KT 180V260 9999 NCD 18/12 Q1016
19:20
V
18 °C 10 km+ - 250° 250° 5 kt METAR LIPO 231720Z AUTO 25005KT 9999 FEW100/// 18/10 Q1016
18:50
V
18 °C 10 km+ - 240° 240° 4 kt METAR LIPO 231650Z AUTO 24004KT 200V270 9999 FEW110/// 18/12 Q1016
18:20
V
17 °C 10 km+ - 290° 290° 4 kt METAR LIPO 231620Z AUTO 29004KT 260V320 9999 FEW083/// 17/12 Q1016
17:50
V
17 °C 10 km+ - 340° 340° 7 kt METAR LIPO 231550Z AUTO 34007KT 9999 -RA FEW037/// 17/14 Q1016
17:20
V
15 °C 10 km+ - 300° 300° 6 kt METAR LIPO 231520Z AUTO 30006KT 9999 -RA SCT058/// 15/14 Q1016
16:50
V
14 °C 10 km+ 5,200 ft 290° 290° 7 kt METAR LIPO 231450Z AUTO 29007KT 9999 -RA BKN052/// 14/14 Q1017 RERA
16:20
M
14 °C 7 km 6,700 ft 270° 270° 6 kt METAR LIPO 231420Z AUTO 27006KT 220V310 7000 RA BKN067/// 14/13 Q1017
15:50
V
14 °C 10 km+ - 240° 240° 10 kt METAR LIPO 231350Z AUTO 24010KT 9999 -RA ///////// 14/13 Q1017 RETSRA
15:20
M
14 °C 7 km 3,800 ft 230° 230° 14 kt METAR LIPO 231320Z AUTO 23014KT 190V250 7000 TSRA BKN038/// BKN110/// 14/13 Q1016
14:50
V
21 °C 10 km+ 8,800 ft 160° 160° 3 kt METAR LIPO 231250Z AUTO 16003KT 130V190 9999 TS FEW038/// BKN088/// 21/13 Q1015
14:20
V
21 °C 10 km+ - 150° 150° 4 kt METAR LIPO 231220Z AUTO 15004KT 100V190 9999 FEW038/// 21/13 Q1015
13:50
V
22 °C 10 km+ 3,800 ft 150° 150° 4 kt METAR LIPO 231150Z AUTO 15004KT 100V260 9999 BKN038/// BKN058/// 22/13 Q1015
13:20
V
22 °C 10 km+ - Var Var 3 kt METAR LIPO 231120Z AUTO VRB03KT 9999 FEW035/// 22/13 Q1015
12:50
V
21 °C 10 km+ - Var Var 2 kt METAR LIPO 231050Z AUTO VRB02KT 9999 FEW031/// 21/13 Q1015
12:20
V
21 °C 10 km+ - Var Var 3 kt METAR LIPO 231020Z AUTO VRB03KT 9999 FEW029/// 21/14 Q1016
11:50
V
20 °C 10 km+ - Var Var 3 kt METAR LIPO 230950Z AUTO VRB03KT 9999 FEW079/// 20/14 Q1016
11:20
V
20 °C 10 km+ - 040° 040° 3 kt METAR LIPO 230920Z AUTO 04003KT 330V110 9999 FEW100/// 20/14 Q1016
10:50
V
19 °C 10 km+ - 070° 070° 4 kt METAR LIPO 230850Z AUTO 07004KT 040V100 9999 FEW086/// 19/14 Q1016
10:20
V
19 °C 10 km+ - 060° 060° 4 kt METAR LIPO 230820Z AUTO 06004KT 010V130 9999 FEW076/// 19/14 Q1016
09:50
V
18 °C 10 km+ 7,300 ft Var Var 2 kt METAR LIPO 230750Z AUTO VRB02KT 9999 BKN073/// 18/14 Q1016
09:20
V
17 °C 10 km+ 7,700 ft Var Var 1 kt METAR LIPO 230720Z AUTO VRB01KT 9999 BKN077/// 17/14 Q1016
08:50
V
17 °C 10 km+ 7,600 ft Var Var 2 kt METAR LIPO 230650Z AUTO VRB02KT 9999 FEW057/// BKN076/// 17/13 Q1016
08:20
V
17 °C 10 km+ 7,700 ft Var Var 1 kt METAR LIPO 230620Z AUTO VRB01KT 9999 SCT053/// BKN077/// 17/13 Q1016
07:50
V
15 °C 10 km+ - 040° 040° 3 kt METAR LIPO 230550Z AUTO 04003KT 350V060 9999 FEW120/// 15/14 Q1016
Report a change